sensor_id;sensor_type;location;lat;lon;timestamp;P1;durP1;ratioP1;P2;durP2;ratioP2
37231;SDS011;23125;48.156;15.954;2023-02-20T00:00:52;0.30;;;0.10;;
37231;SDS011;23125;48.156;15.954;2023-02-20T00:03:19;1.23;;;0.20;;
37231;SDS011;23125;48.156;15.954;2023-02-20T00:05:45;0.20;;;0.10;;
37231;SDS011;23125;48.156;15.954;2023-02-20T00:08:13;0.77;;;0.10;;
37231;SDS011;23125;48.156;15.954;2023-02-20T00:10:39;0.13;;;0.10;;
37231;SDS011;23125;48.156;15.954;2023-02-20T00:13:05;0.75;;;0.10;;
37231;SDS011;23125;48.156;15.954;2023-02-20T00:15:31;0.73;;;0.10;;
37231;SDS011;23125;48.156;15.954;2023-02-20T00:17:57;1.55;;;0.30;;
37231;SDS011;23125;48.156;15.954;2023-02-20T00:20:24;0.50;;;0.20;;
37231;SDS011;23125;48.156;15.954;2023-02-20T00:22:51;0.63;;;0.13;;
37231;SDS011;23125;48.156;15.954;2023-02-20T00:25:19;0.65;;;0.20;;
37231;SDS011;23125;48.156;15.954;2023-02-20T00:27:46;0.75;;;0.20;;
37231;SDS011;23125;48.156;15.954;2023-02-20T00:30:16;0.20;;;0.10;;
37231;SDS011;23125;48.156;15.954;2023-02-20T00:32:46;0.70;;;0.13;;
37231;SDS011;23125;48.156;15.954;2023-02-20T00:35:13;0.30;;;0.20;;
37231;SDS011;23125;48.156;15.954;2023-02-20T00:37:39;0.35;;;0.08;;
37231;SDS011;23125;48.156;15.954;2023-02-20T00:40:06;0.13;;;0.03;;
37231;SDS011;23125;48.156;15.954;2023-02-20T00:42:32;1.15;;;0.20;;
37231;SDS011;23125;48.156;15.954;2023-02-20T00:44:59;0.40;;;0.15;;
37231;SDS011;23125;48.156;15.954;2023-02-20T00:47:25;0.20;;;0.15;;
37231;SDS011;23125;48.156;15.954;2023-02-20T00:49:51;0.20;;;0.10;;
37231;SDS011;23125;48.156;15.954;2023-02-20T00:52:17;1.00;;;0.25;;
37231;SDS011;23125;48.156;15.954;2023-02-20T00:54:43;0.50;;;0.28;;
37231;SDS011;23125;48.156;15.954;2023-02-20T00:57:08;0.63;;;0.25;;
37231;SDS011;23125;48.156;15.954;2023-02-20T00:59:34;0.57;;;0.10;;
37231;SDS011;23125;48.156;15.954;2023-02-20T01:02:00;0.40;;;0.10;;
37231;SDS011;23125;48.156;15.954;2023-02-20T01:04:26;0.60;;;0.20;;
37231;SDS011;23125;48.156;15.954;2023-02-20T01:06:52;0.30;;;0.20;;
37231;SDS011;23125;48.156;15.954;2023-02-20T01:09:18;1.33;;;0.30;;
37231;SDS011;23125;48.156;15.954;2023-02-20T01:11:44;0.38;;;0.10;;
37231;SDS011;23125;48.156;15.954;2023-02-20T01:14:11;0.40;;;0.20;;
37231;SDS011;23125;48.156;15.954;2023-02-20T01:16:44;0.88;;;0.20;;
37231;SDS011;23125;48.156;15.954;2023-02-20T01:19:11;1.90;;;0.50;;
37231;SDS011;23125;48.156;15.954;2023-02-20T01:21:37;0.57;;;0.30;;
37231;SDS011;23125;48.156;15.954;2023-02-20T01:24:03;0.50;;;0.20;;
37231;SDS011;23125;48.156;15.954;2023-02-20T01:26:29;1.40;;;0.32;;
37231;SDS011;23125;48.156;15.954;2023-02-20T01:28:55;1.83;;;0.10;;
37231;SDS011;23125;48.156;15.954;2023-02-20T01:31:24;0.30;;;0.20;;
37231;SDS011;23125;48.156;15.954;2023-02-20T01:33:49;0.73;;;0.25;;
37231;SDS011;23125;48.156;15.954;2023-02-20T01:36:15;0.32;;;0.10;;
37231;SDS011;23125;48.156;15.954;2023-02-20T01:38:41;0.40;;;0.10;;
37231;SDS011;23125;48.156;15.954;2023-02-20T01:41:08;0.68;;;0.17;;
37231;SDS011;23125;48.156;15.954;2023-02-20T01:43:35;0.40;;;0.10;;
37231;SDS011;23125;48.156;15.954;2023-02-20T01:49:02;0.10;;;0.10;;
37231;SDS011;23125;48.156;15.954;2023-02-20T01:51:31;0.88;;;0.20;;
37231;SDS011;23125;48.156;15.954;2023-02-20T01:54:01;0.17;;;0.10;;
37231;SDS011;23125;48.156;15.954;2023-02-20T01:56:28;0.10;;;0.10;;
37231;SDS011;23125;48.156;15.954;2023-02-20T01:58:54;0.73;;;0.32;;
37231;SDS011;23125;48.156;15.954;2023-02-20T02:01:20;0.43;;;0.20;;
37231;SDS011;23125;48.156;15.954;2023-02-20T02:03:47;0.40;;;0.10;;
37231;SDS011;23125;48.156;15.954;2023-02-20T02:06:17;0.40;;;0.15;;
37231;SDS011;23125;48.156;15.954;2023-02-20T02:08:43;1.10;;;0.10;;
37231;SDS011;23125;48.156;15.954;2023-02-20T02:11:14;0.50;;;0.15;;
37231;SDS011;23125;48.156;15.954;2023-02-20T02:13:43;0.73;;;0.22;;
37231;SDS011;23125;48.156;15.954;2023-02-20T02:19:26;0.55;;;0.20;;
37231;SDS011;23125;48.156;15.954;2023-02-20T02:28:07;0.22;;;0.17;;
37231;SDS011;23125;48.156;15.954;2023-02-20T02:34:19;1.30;;;0.50;;
37231;SDS011;23125;48.156;15.954;2023-02-20T02:50:00;0.60;;;0.40;;
37231;SDS011;23125;48.156;15.954;2023-02-20T02:52:32;0.88;;;0.47;;
37231;SDS011;23125;48.156;15.954;2023-02-20T02:55:06;1.42;;;0.50;;
37231;SDS011;23125;48.156;15.954;2023-02-20T02:57:33;1.90;;;0.40;;
37231;SDS011;23125;48.156;15.954;2023-02-20T03:00:00;0.70;;;0.40;;
37231;SDS011;23125;48.156;15.954;2023-02-20T03:02:46;1.08;;;0.50;;
37231;SDS011;23125;48.156;15.954;2023-02-20T03:05:20;1.65;;;0.40;;
37231;SDS011;23125;48.156;15.954;2023-02-20T03:07:50;0.77;;;0.47;;
37231;SDS011;23125;48.156;15.954;2023-02-20T03:10:21;2.88;;;0.52;;
37231;SDS011;23125;48.156;15.954;2023-02-20T03:12:57;1.27;;;0.68;;
37231;SDS011;23125;48.156;15.954;2023-02-20T03:15:33;2.38;;;0.50;;
37231;SDS011;23125;48.156;15.954;2023-02-20T03:18:23;1.80;;;0.70;;
37231;SDS011;23125;48.156;15.954;2023-02-20T03:21:00;0.82;;;0.70;;
37231;SDS011;23125;48.156;15.954;2023-02-20T03:23:34;2.05;;;1.15;;
37231;SDS011;23125;48.156;15.954;2023-02-20T03:26:05;6.53;;;4.15;;
37231;SDS011;23125;48.156;15.954;2023-02-20T03:28:35;3.85;;;3.00;;
37231;SDS011;23125;48.156;15.954;2023-02-20T03:31:08;5.18;;;4.10;;
37231;SDS011;23125;48.156;15.954;2023-02-20T03:33:45;3.95;;;2.70;;
37231;SDS011;23125;48.156;15.954;2023-02-20T03:39:38;10.07;;;6.07;;
37231;SDS011;23125;48.156;15.954;2023-02-20T03:42:30;7.95;;;4.78;;
37231;SDS011;23125;48.156;15.954;2023-02-20T03:45:18;5.80;;;2.70;;
37231;SDS011;23125;48.156;15.954;2023-02-20T03:47:48;3.13;;;1.90;;
37231;SDS011;23125;48.156;15.954;2023-02-20T03:50:18;5.90;;;2.97;;
37231;SDS011;23125;48.156;15.954;2023-02-20T03:53:03;4.22;;;2.00;;
37231;SDS011;23125;48.156;15.954;2023-02-20T03:55:29;2.10;;;1.58;;
37231;SDS011;23125;48.156;15.954;2023-02-20T03:57:56;4.75;;;1.90;;
37231;SDS011;23125;48.156;15.954;2023-02-20T04:00:32;4.35;;;2.80;;
37231;SDS011;23125;48.156;15.954;2023-02-20T04:03:06;5.95;;;3.33;;
37231;SDS011;23125;48.156;15.954;2023-02-20T04:05:42;6.32;;;3.47;;
37231;SDS011;23125;48.156;15.954;2023-02-20T04:08:17;3.05;;;1.90;;
37231;SDS011;23125;48.156;15.954;2023-02-20T04:10:52;4.53;;;1.95;;
37231;SDS011;23125;48.156;15.954;2023-02-20T04:13:27;3.05;;;1.65;;
37231;SDS011;23125;48.156;15.954;2023-02-20T04:15:55;2.50;;;1.70;;
37231;SDS011;23125;48.156;15.954;2023-02-20T04:18:25;2.78;;;1.50;;
37231;SDS011;23125;48.156;15.954;2023-02-20T04:20:53;5.05;;;2.15;;
37231;SDS011;23125;48.156;15.954;2023-02-20T04:23:21;6.18;;;2.40;;
37231;SDS011;23125;48.156;15.954;2023-02-20T04:25:56;2.38;;;1.42;;
37231;SDS011;23125;48.156;15.954;2023-02-20T04:28:23;2.22;;;1.65;;
37231;SDS011;23125;48.156;15.954;2023-02-20T04:30:49;4.65;;;2.03;;
37231;SDS011;23125;48.156;15.954;2023-02-20T04:33:16;7.50;;;3.05;;
37231;SDS011;23125;48.156;15.954;2023-02-20T04:35:42;5.88;;;2.75;;
37231;SDS011;23125;48.156;15.954;2023-02-20T04:38:08;5.00;;;2.28;;
37231;SDS011;23125;48.156;15.954;2023-02-20T04:40:35;5.13;;;2.65;;
37231;SDS011;23125;48.156;15.954;2023-02-20T04:43:02;3.38;;;2.38;;
37231;SDS011;23125;48.156;15.954;2023-02-20T04:45:28;3.22;;;1.80;;
37231;SDS011;23125;48.156;15.954;2023-02-20T04:47:54;3.50;;;1.80;;
37231;SDS011;23125;48.156;15.954;2023-02-20T04:50:24;4.25;;;2.05;;
37231;SDS011;23125;48.156;15.954;2023-02-20T04:52:52;2.17;;;1.92;;
37231;SDS011;23125;48.156;15.954;2023-02-20T04:55:18;5.15;;;1.92;;
37231;SDS011;23125;48.156;15.954;2023-02-20T04:57:45;9.00;;;3.53;;
37231;SDS011;23125;48.156;15.954;2023-02-20T05:00:12;6.90;;;4.10;;
37231;SDS011;23125;48.156;15.954;2023-02-20T05:02:40;7.03;;;3.60;;
37231;SDS011;23125;48.156;15.954;2023-02-20T05:05:06;3.67;;;2.22;;
37231;SDS011;23125;48.156;15.954;2023-02-20T05:07:44;4.72;;;2.97;;
37231;SDS011;23125;48.156;15.954;2023-02-20T05:10:18;5.72;;;3.67;;
37231;SDS011;23125;48.156;15.954;2023-02-20T05:12:45;3.67;;;1.98;;
37231;SDS011;23125;48.156;15.954;2023-02-20T05:15:12;5.72;;;2.33;;
37231;SDS011;23125;48.156;15.954;2023-02-20T05:17:40;5.07;;;2.65;;
37231;SDS011;23125;48.156;15.954;2023-02-20T05:20:06;4.22;;;2.58;;
37231;SDS011;23125;48.156;15.954;2023-02-20T05:22:33;5.05;;;2.85;;
37231;SDS011;23125;48.156;15.954;2023-02-20T05:24:59;5.30;;;2.65;;
37231;SDS011;23125;48.156;15.954;2023-02-20T05:27:24;8.02;;;4.28;;
37231;SDS011;23125;48.156;15.954;2023-02-20T05:29:53;5.93;;;3.13;;
37231;SDS011;23125;48.156;15.954;2023-02-20T05:32:21;6.65;;;3.28;;
37231;SDS011;23125;48.156;15.954;2023-02-20T05:34:48;5.10;;;2.42;;
37231;SDS011;23125;48.156;15.954;2023-02-20T05:37:15;5.45;;;2.67;;
37231;SDS011;23125;48.156;15.954;2023-02-20T05:39:42;5.57;;;2.80;;
37231;SDS011;23125;48.156;15.954;2023-02-20T05:42:09;6.95;;;3.40;;
37231;SDS011;23125;48.156;15.954;2023-02-20T05:44:35;5.32;;;2.90;;
37231;SDS011;23125;48.156;15.954;2023-02-20T05:47:01;4.97;;;3.03;;
37231;SDS011;23125;48.156;15.954;2023-02-20T05:49:28;6.38;;;3.65;;
37231;SDS011;23125;48.156;15.954;2023-02-20T05:51:57;6.82;;;2.45;;
37231;SDS011;23125;48.156;15.954;2023-02-20T05:54:23;3.88;;;2.40;;
37231;SDS011;23125;48.156;15.954;2023-02-20T05:56:49;7.32;;;3.13;;
37231;SDS011;23125;48.156;15.954;2023-02-20T05:59:19;4.85;;;2.70;;
37231;SDS011;23125;48.156;15.954;2023-02-20T06:01:47;11.40;;;6.50;;
37231;SDS011;23125;48.156;15.954;2023-02-20T06:06:43;4.30;;;2.45;;
37231;SDS011;23125;48.156;15.954;2023-02-20T06:09:09;5.20;;;3.08;;
37231;SDS011;23125;48.156;15.954;2023-02-20T06:11:37;5.40;;;3.00;;
37231;SDS011;23125;48.156;15.954;2023-02-20T06:14:04;4.78;;;2.47;;
37231;SDS011;23125;48.156;15.954;2023-02-20T06:16:31;4.82;;;2.40;;
37231;SDS011;23125;48.156;15.954;2023-02-20T06:18:59;4.68;;;2.42;;
37231;SDS011;23125;48.156;15.954;2023-02-20T06:21:26;4.63;;;2.70;;
37231;SDS011;23125;48.156;15.954;2023-02-20T06:23:53;3.88;;;2.33;;
37231;SDS011;23125;48.156;15.954;2023-02-20T06:26:20;5.07;;;3.05;;
37231;SDS011;23125;48.156;15.954;2023-02-20T06:28:46;4.65;;;2.55;;
37231;SDS011;23125;48.156;15.954;2023-02-20T06:31:19;4.10;;;2.72;;
37231;SDS011;23125;48.156;15.954;2023-02-20T06:33:47;8.02;;;2.67;;
37231;SDS011;23125;48.156;15.954;2023-02-20T06:36:23;4.00;;;2.35;;
37231;SDS011;23125;48.156;15.954;2023-02-20T06:38:51;5.57;;;2.75;;
37231;SDS011;23125;48.156;15.954;2023-02-20T06:41:17;5.07;;;2.85;;
37231;SDS011;23125;48.156;15.954;2023-02-20T06:43:43;4.68;;;2.35;;
37231;SDS011;23125;48.156;15.954;2023-02-20T06:46:09;5.05;;;2.67;;
37231;SDS011;23125;48.156;15.954;2023-02-20T06:48:42;4.35;;;2.75;;
37231;SDS011;23125;48.156;15.954;2023-02-20T06:51:15;4.93;;;2.72;;
37231;SDS011;23125;48.156;15.954;2023-02-20T06:53:41;6.95;;;2.35;;
37231;SDS011;23125;48.156;15.954;2023-02-20T06:56:08;6.55;;;2.88;;
37231;SDS011;23125;48.156;15.954;2023-02-20T06:58:37;4.93;;;2.67;;
37231;SDS011;23125;48.156;15.954;2023-02-20T07:01:03;6.53;;;2.63;;
37231;SDS011;23125;48.156;15.954;2023-02-20T07:03:28;5.97;;;2.45;;
37231;SDS011;23125;48.156;15.954;2023-02-20T07:05:54;4.03;;;2.10;;
37231;SDS011;23125;48.156;15.954;2023-02-20T07:08:20;5.80;;;2.50;;
37231;SDS011;23125;48.156;15.954;2023-02-20T07:10:46;4.82;;;2.58;;
37231;SDS011;23125;48.156;15.954;2023-02-20T07:13:12;4.95;;;2.63;;
37231;SDS011;23125;48.156;15.954;2023-02-20T07:15:37;6.70;;;3.28;;
37231;SDS011;23125;48.156;15.954;2023-02-20T07:18:03;5.85;;;2.60;;
37231;SDS011;23125;48.156;15.954;2023-02-20T07:20:29;5.75;;;3.35;;
37231;SDS011;23125;48.156;15.954;2023-02-20T07:22:55;5.38;;;2.45;;
37231;SDS011;23125;48.156;15.954;2023-02-20T07:25:21;5.35;;;2.42;;
37231;SDS011;23125;48.156;15.954;2023-02-20T07:27:47;5.50;;;2.75;;
37231;SDS011;23125;48.156;15.954;2023-02-20T07:30:13;5.22;;;2.63;;
37231;SDS011;23125;48.156;15.954;2023-02-20T07:32:39;6.60;;;2.55;;
37231;SDS011;23125;48.156;15.954;2023-02-20T07:35:04;4.95;;;2.30;;
37231;SDS011;23125;48.156;15.954;2023-02-20T07:37:31;3.90;;;2.10;;
37231;SDS011;23125;48.156;15.954;2023-02-20T07:39:56;4.95;;;2.20;;
37231;SDS011;23125;48.156;15.954;2023-02-20T07:42:22;5.38;;;2.10;;
37231;SDS011;23125;48.156;15.954;2023-02-20T07:44:48;6.50;;;2.50;;
37231;SDS011;23125;48.156;15.954;2023-02-20T07:47:14;3.97;;;2.45;;
37231;SDS011;23125;48.156;15.954;2023-02-20T07:49:40;3.63;;;2.00;;
37231;SDS011;23125;48.156;15.954;2023-02-20T07:52:06;4.50;;;2.15;;
37231;SDS011;23125;48.156;15.954;2023-02-20T07:54:32;3.97;;;1.83;;
37231;SDS011;23125;48.156;15.954;2023-02-20T07:56:57;8.57;;;2.78;;
37231;SDS011;23125;48.156;15.954;2023-02-20T07:59:23;3.88;;;2.20;;
37231;SDS011;23125;48.156;15.954;2023-02-20T08:01:49;3.25;;;1.75;;
37231;SDS011;23125;48.156;15.954;2023-02-20T08:04:15;2.60;;;1.90;;
37231;SDS011;23125;48.156;15.954;2023-02-20T08:06:41;4.30;;;1.80;;
37231;SDS011;23125;48.156;15.954;2023-02-20T08:09:07;3.95;;;1.65;;
37231;SDS011;23125;48.156;15.954;2023-02-20T08:11:34;5.47;;;2.05;;
37231;SDS011;23125;48.156;15.954;2023-02-20T08:14:01;4.95;;;1.48;;
37231;SDS011;23125;48.156;15.954;2023-02-20T08:16:28;3.70;;;1.80;;
37231;SDS011;23125;48.156;15.954;2023-02-20T08:18:54;4.35;;;1.80;;
37231;SDS011;23125;48.156;15.954;2023-02-20T08:21:20;3.42;;;1.52;;
37231;SDS011;23125;48.156;15.954;2023-02-20T08:23:46;3.58;;;1.83;;
37231;SDS011;23125;48.156;15.954;2023-02-20T08:26:12;4.70;;;2.17;;
37231;SDS011;23125;48.156;15.954;2023-02-20T08:28:38;4.68;;;1.60;;
37231;SDS011;23125;48.156;15.954;2023-02-20T08:31:04;2.65;;;1.90;;
37231;SDS011;23125;48.156;15.954;2023-02-20T08:33:30;5.65;;;1.85;;
37231;SDS011;23125;48.156;15.954;2023-02-20T08:35:56;4.38;;;2.15;;
37231;SDS011;23125;48.156;15.954;2023-02-20T08:38:23;3.47;;;1.83;;
37231;SDS011;23125;48.156;15.954;2023-02-20T08:40:49;3.67;;;1.98;;
37231;SDS011;23125;48.156;15.954;2023-02-20T08:43:16;3.53;;;1.80;;
37231;SDS011;23125;48.156;15.954;2023-02-20T08:45:42;6.15;;;2.22;;
37231;SDS011;23125;48.156;15.954;2023-02-20T08:48:07;3.58;;;2.00;;
37231;SDS011;23125;48.156;15.954;2023-02-20T08:50:33;5.10;;;1.98;;
37231;SDS011;23125;48.156;15.954;2023-02-20T08:52:59;4.32;;;1.95;;
37231;SDS011;23125;48.156;15.954;2023-02-20T08:55:26;3.13;;;1.88;;
37231;SDS011;23125;48.156;15.954;2023-02-20T08:57:52;3.90;;;1.88;;
37231;SDS011;23125;48.156;15.954;2023-02-20T09:00:18;6.50;;;2.30;;
37231;SDS011;23125;48.156;15.954;2023-02-20T09:02:47;3.72;;;1.60;;
37231;SDS011;23125;48.156;15.954;2023-02-20T09:05:13;2.87;;;1.87;;
37231;SDS011;23125;48.156;15.954;2023-02-20T09:07:40;3.03;;;1.70;;
37231;SDS011;23125;48.156;15.954;2023-02-20T09:10:06;6.07;;;1.98;;
37231;SDS011;23125;48.156;15.954;2023-02-20T09:12:34;3.85;;;1.67;;
37231;SDS011;23125;48.156;15.954;2023-02-20T09:15:00;4.88;;;2.17;;
37231;SDS011;23125;48.156;15.954;2023-02-20T09:17:29;3.60;;;1.95;;
37231;SDS011;23125;48.156;15.954;2023-02-20T09:19:55;6.30;;;2.35;;
37231;SDS011;23125;48.156;15.954;2023-02-20T09:22:22;5.57;;;2.20;;
37231;SDS011;23125;48.156;15.954;2023-02-20T09:24:49;2.47;;;1.75;;
37231;SDS011;23125;48.156;15.954;2023-02-20T09:27:16;5.05;;;2.40;;
37231;SDS011;23125;48.156;15.954;2023-02-20T09:29:41;4.63;;;1.88;;
37231;SDS011;23125;48.156;15.954;2023-02-20T09:32:08;4.95;;;2.10;;
37231;SDS011;23125;48.156;15.954;2023-02-20T09:34:35;4.45;;;1.83;;
37231;SDS011;23125;48.156;15.954;2023-02-20T09:37:01;3.15;;;1.88;;
37231;SDS011;23125;48.156;15.954;2023-02-20T09:39:27;4.43;;;2.20;;
37231;SDS011;23125;48.156;15.954;2023-02-20T09:44:41;4.18;;;1.50;;
37231;SDS011;23125;48.156;15.954;2023-02-20T09:50:02;4.28;;;1.85;;
37231;SDS011;23125;48.156;15.954;2023-02-20T09:52:35;2.92;;;1.60;;
37231;SDS011;23125;48.156;15.954;2023-02-20T09:55:06;3.88;;;1.77;;
37231;SDS011;23125;48.156;15.954;2023-02-20T09:57:39;3.22;;;1.88;;
37231;SDS011;23125;48.156;15.954;2023-02-20T10:02:36;2.17;;;1.48;;
37231;SDS011;23125;48.156;15.954;2023-02-20T10:05:23;2.53;;;1.30;;
37231;SDS011;23125;48.156;15.954;2023-02-20T10:07:53;2.85;;;1.65;;
37231;SDS011;23125;48.156;15.954;2023-02-20T10:10:24;3.65;;;1.67;;
37231;SDS011;23125;48.156;15.954;2023-02-20T10:18:23;1.35;;;1.13;;
37231;SDS011;23125;48.156;15.954;2023-02-20T10:26:08;5.07;;;1.20;;
37231;SDS011;23125;48.156;15.954;2023-02-20T10:28:46;3.33;;;1.55;;
37231;SDS011;23125;48.156;15.954;2023-02-20T10:31:35;5.38;;;1.67;;
37231;SDS011;23125;48.156;15.954;2023-02-20T10:36:41;2.92;;;1.30;;
37231;SDS011;23125;48.156;15.954;2023-02-20T10:39:18;4.10;;;1.65;;
37231;SDS011;23125;48.156;15.954;2023-02-20T10:52:31;4.82;;;1.17;;
37231;SDS011;23125;48.156;15.954;2023-02-20T10:55:05;3.20;;;1.30;;
37231;SDS011;23125;48.156;15.954;2023-02-20T10:57:40;2.28;;;1.13;;
37231;SDS011;23125;48.156;15.954;2023-02-20T11:00:16;1.52;;;1.08;;
37231;SDS011;23125;48.156;15.954;2023-02-20T11:02:53;2.28;;;1.20;;
37231;SDS011;23125;48.156;15.954;2023-02-20T11:05:25;3.85;;;1.45;;
37231;SDS011;23125;48.156;15.954;2023-02-20T11:07:56;2.78;;;1.40;;
37231;SDS011;23125;48.156;15.954;2023-02-20T11:10:22;3.53;;;2.15;;
37231;SDS011;23125;48.156;15.954;2023-02-20T11:12:49;4.70;;;1.70;;
37231;SDS011;23125;48.156;15.954;2023-02-20T11:15:21;5.60;;;2.40;;
37231;SDS011;23125;48.156;15.954;2023-02-20T11:17:53;4.53;;;1.75;;
37231;SDS011;23125;48.156;15.954;2023-02-20T11:23:05;3.65;;;1.67;;
37231;SDS011;23125;48.156;15.954;2023-02-20T11:25:33;3.03;;;1.48;;
37231;SDS011;23125;48.156;15.954;2023-02-20T11:30:45;3.20;;;1.40;;
37231;SDS011;23125;48.156;15.954;2023-02-20T11:35:52;4.03;;;2.08;;
37231;SDS011;23125;48.156;15.954;2023-02-20T11:38:38;2.63;;;1.98;;
37231;SDS011;23125;48.156;15.954;2023-02-20T11:44:09;2.90;;;1.58;;
37231;SDS011;23125;48.156;15.954;2023-02-20T11:46:45;3.10;;;2.42;;
37231;SDS011;23125;48.156;15.954;2023-02-20T11:49:23;3.95;;;2.80;;
37231;SDS011;23125;48.156;15.954;2023-02-20T11:51:51;3.90;;;1.83;;
37231;SDS011;23125;48.156;15.954;2023-02-20T11:54:24;3.97;;;1.80;;
37231;SDS011;23125;48.156;15.954;2023-02-20T11:59:49;2.72;;;1.15;;
37231;SDS011;23125;48.156;15.954;2023-02-20T12:02:31;4.85;;;1.45;;
37231;SDS011;23125;48.156;15.954;2023-02-20T12:05:13;2.60;;;1.23;;
37231;SDS011;23125;48.156;15.954;2023-02-20T12:07:41;2.15;;;1.08;;
37231;SDS011;23125;48.156;15.954;2023-02-20T12:13:01;2.58;;;1.30;;
37231;SDS011;23125;48.156;15.954;2023-02-20T12:15:29;4.45;;;1.75;;
37231;SDS011;23125;48.156;15.954;2023-02-20T12:31:46;3.65;;;1.40;;
37231;SDS011;23125;48.156;15.954;2023-02-20T12:37:41;3.58;;;1.60;;
37231;SDS011;23125;48.156;15.954;2023-02-20T12:57:20;5.47;;;1.33;;
37231;SDS011;23125;48.156;15.954;2023-02-20T12:59:57;3.47;;;1.23;;
37231;SDS011;23125;48.156;15.954;2023-02-20T13:02:31;2.97;;;1.10;;
37231;SDS011;23125;48.156;15.954;2023-02-20T13:05:00;3.53;;;1.08;;
37231;SDS011;23125;48.156;15.954;2023-02-20T13:07:31;2.58;;;0.93;;
37231;SDS011;23125;48.156;15.954;2023-02-20T13:10:26;2.30;;;1.02;;
37231;SDS011;23125;48.156;15.954;2023-02-20T13:12:59;1.80;;;1.00;;
37231;SDS011;23125;48.156;15.954;2023-02-20T13:16:08;2.63;;;0.90;;
37231;SDS011;23125;48.156;15.954;2023-02-20T13:21:21;5.47;;;1.85;;
37231;SDS011;23125;48.156;15.954;2023-02-20T13:23:41;3.30;;;2.17;;
37231;SDS011;23125;48.156;15.954;2023-02-20T13:28:51;2.70;;;1.05;;
37231;SDS011;23125;48.156;15.954;2023-02-20T13:31:21;3.13;;;1.33;;
37231;SDS011;23125;48.156;15.954;2023-02-20T13:36:37;1.33;;;0.80;;
37231;SDS011;23125;48.156;15.954;2023-02-20T13:54:56;2.40;;;1.10;;
37231;SDS011;23125;48.156;15.954;2023-02-20T13:57:24;2.13;;;0.90;;
37231;SDS011;23125;48.156;15.954;2023-02-20T13:59:54;2.65;;;0.77;;
37231;SDS011;23125;48.156;15.954;2023-02-20T14:02:22;2.67;;;0.90;;
37231;SDS011;23125;48.156;15.954;2023-02-20T14:04:58;1.52;;;0.80;;
37231;SDS011;23125;48.156;15.954;2023-02-20T14:07:30;3.00;;;1.30;;
37231;SDS011;23125;48.156;15.954;2023-02-20T14:12:54;11.32;;;3.80;;
37231;SDS011;23125;48.156;15.954;2023-02-20T14:17:56;9.93;;;4.22;;
37231;SDS011;23125;48.156;15.954;2023-02-20T14:20:33;13.05;;;5.68;;
37231;SDS011;23125;48.156;15.954;2023-02-20T14:23:04;8.52;;;4.18;;
37231;SDS011;23125;48.156;15.954;2023-02-20T14:25:31;4.45;;;2.58;;
37231;SDS011;23125;48.156;15.954;2023-02-20T14:28:09;4.55;;;2.65;;
37231;SDS011;23125;48.156;15.954;2023-02-20T14:30:38;4.60;;;2.78;;
37231;SDS011;23125;48.156;15.954;2023-02-20T14:33:16;8.10;;;4.47;;
37231;SDS011;23125;48.156;15.954;2023-02-20T14:41:17;5.30;;;2.92;;
37231;SDS011;23125;48.156;15.954;2023-02-20T14:43:52;3.60;;;1.30;;
37231;SDS011;23125;48.156;15.954;2023-02-20T14:46:24;1.23;;;0.70;;
37231;SDS011;23125;48.156;15.954;2023-02-20T14:49:07;7.25;;;3.30;;
37231;SDS011;23125;48.156;15.954;2023-02-20T14:51:35;5.13;;;2.67;;
37231;SDS011;23125;48.156;15.954;2023-02-20T14:56:47;2.08;;;0.75;;
37231;SDS011;23125;48.156;15.954;2023-02-20T14:59:24;1.52;;;0.70;;
37231;SDS011;23125;48.156;15.954;2023-02-20T15:02:00;1.63;;;0.73;;
37231;SDS011;23125;48.156;15.954;2023-02-20T15:04:50;2.70;;;0.90;;
37231;SDS011;23125;48.156;15.954;2023-02-20T15:07:24;2.55;;;0.88;;
37231;SDS011;23125;48.156;15.954;2023-02-20T15:09:52;2.38;;;0.68;;
37231;SDS011;23125;48.156;15.954;2023-02-20T15:12:22;1.27;;;0.70;;
37231;SDS011;23125;48.156;15.954;2023-02-20T15:15:07;1.63;;;0.63;;
37231;SDS011;23125;48.156;15.954;2023-02-20T15:17:40;3.97;;;2.15;;
37231;SDS011;23125;48.156;15.954;2023-02-20T15:25:34;2.10;;;0.73;;
37231;SDS011;23125;48.156;15.954;2023-02-20T15:30:29;1.38;;;0.77;;
37231;SDS011;23125;48.156;15.954;2023-02-20T15:32:55;2.72;;;1.17;;
37231;SDS011;23125;48.156;15.954;2023-02-20T15:35:24;2.38;;;0.82;;
37231;SDS011;23125;48.156;15.954;2023-02-20T15:37:55;2.30;;;0.93;;
37231;SDS011;23125;48.156;15.954;2023-02-20T15:40:25;1.60;;;0.70;;
37231;SDS011;23125;48.156;15.954;2023-02-20T15:42:56;1.50;;;0.98;;
37231;SDS011;23125;48.156;15.954;2023-02-20T15:45:27;2.53;;;1.10;;
37231;SDS011;23125;48.156;15.954;2023-02-20T15:47:55;2.60;;;0.77;;
37231;SDS011;23125;48.156;15.954;2023-02-20T15:50:21;2.28;;;1.00;;
37231;SDS011;23125;48.156;15.954;2023-02-20T15:52:48;1.70;;;1.00;;
37231;SDS011;23125;48.156;15.954;2023-02-20T15:55:16;3.15;;;1.30;;
37231;SDS011;23125;48.156;15.954;2023-02-20T15:57:44;4.07;;;1.40;;
37231;SDS011;23125;48.156;15.954;2023-02-20T16:00:19;3.83;;;1.38;;
37231;SDS011;23125;48.156;15.954;2023-02-20T16:02:47;4.28;;;2.05;;
37231;SDS011;23125;48.156;15.954;2023-02-20T16:05:13;2.55;;;1.00;;
37231;SDS011;23125;48.156;15.954;2023-02-20T16:07:40;3.42;;;1.75;;
37231;SDS011;23125;48.156;15.954;2023-02-20T16:10:06;3.15;;;1.50;;
37231;SDS011;23125;48.156;15.954;2023-02-20T16:12:33;2.63;;;1.10;;
37231;SDS011;23125;48.156;15.954;2023-02-20T16:14:59;2.10;;;0.98;;
37231;SDS011;23125;48.156;15.954;2023-02-20T16:17:30;2.72;;;1.20;;
37231;SDS011;23125;48.156;15.954;2023-02-20T16:19:57;3.85;;;1.40;;
37231;SDS011;23125;48.156;15.954;2023-02-20T16:22:23;3.22;;;1.00;;
37231;SDS011;23125;48.156;15.954;2023-02-20T16:24:49;2.05;;;1.00;;
37231;SDS011;23125;48.156;15.954;2023-02-20T16:29:41;2.05;;;0.70;;
37231;SDS011;23125;48.156;15.954;2023-02-20T16:34:36;3.10;;;1.52;;
37231;SDS011;23125;48.156;15.954;2023-02-20T16:37:04;3.80;;;1.20;;
37231;SDS011;23125;48.156;15.954;2023-02-20T16:39:33;1.55;;;0.90;;
37231;SDS011;23125;48.156;15.954;2023-02-20T16:41:59;3.58;;;0.80;;
37231;SDS011;23125;48.156;15.954;2023-02-20T16:44:39;2.65;;;0.75;;
37231;SDS011;23125;48.156;15.954;2023-02-20T16:47:14;2.58;;;0.65;;
37231;SDS011;23125;48.156;15.954;2023-02-20T16:49:42;3.45;;;0.93;;
37231;SDS011;23125;48.156;15.954;2023-02-20T16:52:12;7.75;;;3.97;;
37231;SDS011;23125;48.156;15.954;2023-02-20T16:54:45;12.27;;;6.25;;
37231;SDS011;23125;48.156;15.954;2023-02-20T16:57:13;7.97;;;4.00;;
37231;SDS011;23125;48.156;15.954;2023-02-20T16:59:40;3.85;;;2.13;;
37231;SDS011;23125;48.156;15.954;2023-02-20T17:02:06;5.75;;;3.25;;
37231;SDS011;23125;48.156;15.954;2023-02-20T17:04:34;2.75;;;1.13;;
37231;SDS011;23125;48.156;15.954;2023-02-20T17:07:03;3.35;;;1.50;;
37231;SDS011;23125;48.156;15.954;2023-02-20T17:09:30;2.80;;;1.10;;
37231;SDS011;23125;48.156;15.954;2023-02-20T17:11:56;1.42;;;1.00;;
37231;SDS011;23125;48.156;15.954;2023-02-20T17:14:22;2.05;;;0.90;;
37231;SDS011;23125;48.156;15.954;2023-02-20T17:16:48;3.85;;;1.30;;
37231;SDS011;23125;48.156;15.954;2023-02-20T17:19:15;1.65;;;0.82;;
37231;SDS011;23125;48.156;15.954;2023-02-20T17:21:45;3.78;;;1.15;;
37231;SDS011;23125;48.156;15.954;2023-02-20T17:24:12;3.42;;;1.30;;
37231;SDS011;23125;48.156;15.954;2023-02-20T17:26:38;2.33;;;1.25;;
37231;SDS011;23125;48.156;15.954;2023-02-20T17:29:04;1.65;;;1.23;;
37231;SDS011;23125;48.156;15.954;2023-02-20T17:31:30;4.47;;;1.35;;
37231;SDS011;23125;48.156;15.954;2023-02-20T17:33:56;2.95;;;1.42;;